createdAt,value
2023-05-22T00:00:28.449Z,96
2023-05-22T00:00:56.420Z,96
2023-05-22T00:01:27.460Z,96
2023-05-22T00:01:59.384Z,96
2023-05-22T00:02:29.624Z,96
2023-05-22T00:03:00.881Z,96
2023-05-22T00:03:31.764Z,96
2023-05-22T00:04:02.852Z,96
2023-05-22T00:04:33.577Z,96
2023-05-22T00:05:04.566Z,96
2023-05-22T00:05:35.550Z,96
2023-05-22T00:06:06.498Z,96
2023-05-22T00:06:37.553Z,96
2023-05-22T00:07:09.494Z,96
2023-05-22T00:07:39.338Z,96
2023-05-22T00:08:10.437Z,96
2023-05-22T00:08:41.389Z,96
2023-05-22T00:09:12.453Z,96
2023-05-22T00:09:43.531Z,96
2023-05-22T00:10:14.614Z,96
2023-05-22T00:10:45.673Z,96
2023-05-22T00:11:16.663Z,97
2023-05-22T00:11:47.511Z,97
2023-05-22T00:12:19.825Z,97
2023-05-22T00:12:49.916Z,97
2023-05-22T00:13:20.501Z,97
2023-05-22T00:13:51.822Z,97
2023-05-22T00:14:22.928Z,97
2023-05-22T00:14:53.482Z,97
2023-05-22T00:15:27.306Z,97
2023-05-22T00:15:55.637Z,97
2023-05-22T00:16:26.654Z,97
2023-05-22T00:16:57.379Z,97
2023-05-22T00:17:29.577Z,97
2023-05-22T00:17:59.523Z,97
2023-05-22T00:18:30.851Z,97
2023-05-22T00:19:01.629Z,96
2023-05-22T00:19:32.547Z,96
2023-05-22T00:20:03.698Z,96
2023-05-22T00:20:35.347Z,96
2023-05-22T00:21:05.817Z,96
2023-05-22T00:21:37.313Z,96
2023-05-22T00:22:07.749Z,96
2023-05-22T00:22:39.488Z,96
2023-05-22T00:23:11.424Z,96
2023-05-22T00:23:40.857Z,96
2023-05-22T00:24:11.356Z,96
2023-05-22T00:24:42.456Z,96
2023-05-22T00:25:13.643Z,96
2023-05-22T00:25:44.690Z,96
2023-05-22T00:26:15.712Z,96
2023-05-22T00:26:47.147Z,95
2023-05-22T00:27:17.486Z,95
2023-05-22T00:27:49.671Z,95
2023-05-22T00:28:19.486Z,95
2023-05-22T00:28:50.914Z,95
2023-05-22T00:29:21.991Z,95
2023-05-22T00:29:52.352Z,95
2023-05-22T00:30:26.349Z,94
2023-05-22T00:30:54.515Z,94
2023-05-22T00:31:25.428Z,94
2023-05-22T00:31:56.484Z,94
2023-05-22T00:32:27.729Z,94
2023-05-22T00:32:59.901Z,94
2023-05-22T00:33:29.592Z,94
2023-05-22T00:34:00.536Z,94
2023-05-22T00:34:31.665Z,94
2023-05-22T00:35:02.833Z,94
2023-05-22T00:35:33.660Z,94
2023-05-22T00:36:04.461Z,94
2023-05-22T00:36:35.806Z,94
2023-05-22T00:37:07.152Z,93
2023-05-22T00:37:37.441Z,93
2023-05-22T00:38:09.658Z,93
2023-05-22T00:38:39.600Z,93
2023-05-22T00:39:10.916Z,93
2023-05-22T00:39:41.889Z,93
2023-05-22T00:40:14.553Z,93
2023-05-22T00:41:49.814Z,93
2023-05-22T00:42:16.978Z,93
2023-05-22T00:42:47.642Z,93
2023-05-22T00:43:19.634Z,93
2023-05-22T00:43:49.653Z,93
2023-05-22T00:44:20.567Z,93
2023-05-22T00:44:52.757Z,93
2023-05-22T00:45:25.231Z,93
2023-05-22T00:45:55.943Z,93
2023-05-22T00:46:25.228Z,93
2023-05-22T00:46:55.862Z,93
2023-05-22T00:47:28.233Z,93
2023-05-22T00:47:57.984Z,93
2023-05-22T00:48:30.854Z,93
2023-05-22T00:48:59.568Z,93
2023-05-22T00:49:30.816Z,93
2023-05-22T00:50:02.924Z,93
2023-05-22T00:50:32.691Z,93
2023-05-22T00:54:07.064Z,93
2023-05-22T00:54:37.516Z,93
2023-05-22T00:55:15.761Z,93
2023-05-22T00:55:43.723Z,93
2023-05-22T00:56:13.518Z,93
2023-05-22T00:56:44.689Z,93
2023-05-22T00:57:15.841Z,93
2023-05-22T00:57:47.239Z,93
2023-05-22T00:58:18.233Z,93
2023-05-22T00:58:50.264Z,93
2023-05-22T00:59:19.689Z,93
2023-05-22T00:59:50.481Z,93
2023-05-22T01:00:27.986Z,93
2023-05-22T01:00:55.114Z,93
2023-05-22T01:01:23.953Z,93
2023-05-22T01:01:54.599Z,94
2023-05-22T01:02:25.686Z,94
2023-05-22T01:02:56.944Z,94
2023-05-22T01:03:27.898Z,94
2023-05-22T01:03:59.649Z,94
2023-05-22T01:04:29.634Z,94
2023-05-22T01:05:00.471Z,94
2023-05-22T01:05:31.725Z,94
2023-05-22T01:06:02.578Z,94
2023-05-22T01:06:33.519Z,94
2023-05-22T01:07:05.009Z,94
2023-05-22T01:07:35.487Z,94
2023-05-22T01:08:06.690Z,94
2023-05-22T01:08:37.978Z,94
2023-05-22T01:09:09.880Z,94
2023-05-22T01:09:40.409Z,94
2023-05-22T01:10:10.794Z,94
2023-05-22T01:10:41.962Z,94
2023-05-22T01:11:12.500Z,95
2023-05-22T01:11:43.873Z,95
2023-05-22T01:12:15.516Z,95
2023-05-22T01:12:45.515Z,95
2023-05-22T01:13:16.940Z,95
2023-05-22T01:13:47.851Z,95
2023-05-22T01:14:20.056Z,95
2023-05-22T01:14:49.781Z,95
2023-05-22T01:15:23.682Z,95
2023-05-22T01:15:51.484Z,95
2023-05-22T01:16:22.689Z,95
2023-05-22T01:16:53.529Z,96
2023-05-22T01:17:24.632Z,96
2023-05-22T01:17:55.838Z,96
2023-05-22T01:18:26.913Z,96
2023-05-22T01:18:58.484Z,96
2023-05-22T01:19:30.031Z,96
2023-05-22T01:19:59.648Z,96
2023-05-22T01:20:30.541Z,96
2023-05-22T01:21:01.617Z,96
2023-05-22T01:21:32.635Z,96
2023-05-22T01:22:03.953Z,96
2023-05-22T01:22:34.950Z,96
2023-05-22T01:23:05.943Z,96
2023-05-22T01:23:36.769Z,96
2023-05-22T01:24:07.953Z,96
2023-05-22T01:24:39.925Z,96
2023-05-22T01:25:12.274Z,96
2023-05-22T01:25:41.138Z,96
2023-05-22T01:26:12.000Z,96
2023-05-22T01:26:42.516Z,97
2023-05-22T01:27:13.554Z,97
2023-05-22T01:27:44.810Z,97
2023-05-22T01:28:15.397Z,97
2023-05-22T01:28:46.318Z,97
2023-05-22T01:29:17.338Z,97
2023-05-22T01:29:49.528Z,97
2023-05-22T01:30:22.643Z,97
2023-05-22T01:30:50.620Z,97
2023-05-22T01:31:21.891Z,97
2023-05-22T01:31:52.520Z,97
2023-05-22T01:32:23.524Z,97
2023-05-22T01:32:54.539Z,97
2023-05-22T01:33:25.830Z,97
2023-05-22T01:33:56.960Z,97
2023-05-22T01:34:27.739Z,97
2023-05-22T01:34:59.465Z,97
2023-05-22T01:35:29.476Z,97
2023-05-22T01:36:00.567Z,97
2023-05-22T01:36:31.532Z,97
2023-05-22T01:37:02.644Z,97
2023-05-22T01:37:33.534Z,97
2023-05-22T01:38:04.651Z,97
2023-05-22T01:38:35.659Z,97
2023-05-22T01:39:06.589Z,97
2023-05-22T01:39:37.830Z,97
2023-05-22T01:40:09.932Z,97
2023-05-22T01:40:40.218Z,97
2023-05-22T01:41:11.428Z,98
2023-05-22T01:41:41.620Z,97
2023-05-22T01:42:13.692Z,97
2023-05-22T01:42:44.382Z,97
2023-05-22T01:43:14.886Z,97
2023-05-22T01:43:45.916Z,97
2023-05-22T01:44:16.686Z,98
2023-05-22T01:44:47.954Z,98
2023-05-22T01:45:22.140Z,98
2023-05-22T01:45:49.572Z,98
2023-05-22T01:46:20.488Z,98
2023-05-22T01:46:51.548Z,98
2023-05-22T01:47:22.621Z,98
2023-05-22T01:47:53.387Z,98
2023-05-22T01:48:24.352Z,98
2023-05-22T01:48:55.536Z,98
2023-05-22T01:49:26.524Z,98
2023-05-22T01:49:57.779Z,98
2023-05-22T01:50:29.739Z,98
2023-05-22T01:50:59.913Z,98
2023-05-22T01:51:30.613Z,98
2023-05-22T01:52:01.856Z,98
2023-05-22T01:52:32.653Z,98
2023-05-22T01:53:03.460Z,98
2023-05-22T01:53:34.489Z,98
2023-05-22T01:54:05.636Z,98
2023-05-22T01:54:36.725Z,98
2023-05-22T01:55:07.669Z,98
2023-05-22T01:55:39.584Z,98
2023-05-22T01:56:10.601Z,98
2023-05-22T01:56:40.592Z,98
2023-05-22T01:57:11.601Z,98
2023-05-22T01:57:42.529Z,98
2023-05-22T01:58:14.187Z,98
2023-05-22T01:58:44.615Z,98
2023-05-22T01:59:15.571Z,98
2023-05-22T01:59:46.742Z,98
2023-05-22T02:00:20.524Z,98
2023-05-22T02:00:49.637Z,98
2023-05-22T02:01:19.554Z,98
2023-05-22T02:01:50.620Z,97
2023-05-22T02:02:21.774Z,97
2023-05-22T02:02:52.705Z,97
2023-05-22T02:03:23.852Z,97
2023-05-22T02:03:54.664Z,97
2023-05-22T02:04:25.398Z,97
2023-05-22T02:04:56.710Z,98
2023-05-22T02:05:27.688Z,97
2023-05-22T02:05:59.658Z,97
2023-05-22T02:06:29.393Z,97
2023-05-22T02:07:00.674Z,98
2023-05-22T02:07:31.758Z,98
2023-05-22T02:08:02.451Z,98
2023-05-22T02:08:33.662Z,98
2023-05-22T02:09:04.778Z,98
2023-05-22T02:09:35.748Z,98
2023-05-22T02:10:06.859Z,98
2023-05-22T02:10:37.957Z,98
2023-05-22T02:11:10.162Z,98
2023-05-22T02:11:40.664Z,98
2023-05-22T02:12:10.773Z,98
2023-05-22T02:12:41.599Z,98
2023-05-22T02:13:12.546Z,98
2023-05-22T02:13:44.276Z,98
2023-05-22T02:14:14.971Z,98
2023-05-22T02:14:45.536Z,98
2023-05-22T02:15:19.268Z,98
2023-05-22T02:15:47.526Z,98
2023-05-22T02:16:19.551Z,98
2023-05-22T02:16:49.651Z,98
2023-05-22T02:17:20.566Z,98
2023-05-22T02:17:52.241Z,98
2023-05-22T02:18:22.749Z,98
2023-05-22T02:18:54.009Z,98
2023-05-22T02:19:24.721Z,98
2023-05-22T02:19:55.735Z,98
2023-05-22T02:20:26.642Z,98
2023-05-22T02:20:57.577Z,98
2023-05-22T02:21:29.719Z,98
2023-05-22T02:21:59.893Z,98
2023-05-22T02:22:30.566Z,98
2023-05-22T02:23:01.992Z,98
2023-05-22T02:23:33.043Z,98
2023-05-22T02:24:06.364Z,98
2023-05-22T02:24:34.922Z,98
2023-05-22T02:25:05.567Z,98
2023-05-22T02:25:36.995Z,98
2023-05-22T02:26:07.600Z,98
2023-05-22T02:26:39.401Z,98
2023-05-22T02:27:10.471Z,98
2023-05-22T02:27:40.381Z,98
2023-05-22T02:28:11.549Z,98
2023-05-22T02:28:42.543Z,98
2023-05-22T02:29:13.558Z,98
2023-05-22T02:29:44.386Z,98
2023-05-22T02:30:19.139Z,98
2023-05-22T02:30:47.801Z,98
2023-05-22T02:31:18.141Z,98
2023-05-22T02:31:49.615Z,98
2023-05-22T02:32:19.940Z,98
2023-05-22T02:32:50.966Z,98
2023-05-22T02:33:22.069Z,98
2023-05-22T02:33:53.296Z,98
2023-05-22T02:34:23.712Z,98
2023-05-22T02:34:54.903Z,98
2023-05-22T02:35:25.654Z,98
2023-05-22T02:35:56.964Z,98
2023-05-22T02:36:27.622Z,98
2023-05-22T02:36:59.488Z,98
2023-05-22T02:37:29.831Z,98
2023-05-22T02:38:01.023Z,98
2023-05-22T02:38:31.615Z,98
2023-05-22T02:39:02.533Z,98
2023-05-22T02:39:33.775Z,98
2023-05-22T02:40:04.973Z,98
2023-05-22T02:40:36.105Z,98
2023-05-22T02:41:06.579Z,98
2023-05-22T02:41:37.498Z,98
2023-05-22T02:42:09.569Z,98
2023-05-22T02:42:39.584Z,98
2023-05-22T02:43:10.432Z,98
2023-05-22T02:43:41.722Z,98
2023-05-22T02:44:12.819Z,98
2023-05-22T02:44:43.529Z,98
2023-05-22T02:45:17.674Z,98
2023-05-22T02:45:45.937Z,98
2023-05-22T02:46:17.352Z,98
2023-05-22T02:46:48.657Z,98
2023-05-22T02:47:19.547Z,98
2023-05-22T02:47:49.713Z,98
2023-05-22T02:48:21.448Z,98
2023-05-22T02:48:51.577Z,98
2023-05-22T02:49:22.806Z,98
2023-05-22T02:49:55.710Z,98
2023-05-22T02:50:24.768Z,98
2023-05-22T02:50:55.697Z,98
2023-05-22T02:51:26.838Z,98
2023-05-22T02:51:58.026Z,98
2023-05-22T02:52:29.709Z,98
2023-05-22T02:52:59.505Z,98
2023-05-22T02:53:30.898Z,98
2023-05-22T02:54:02.009Z,98
2023-05-22T02:54:32.929Z,98
2023-05-22T02:55:03.551Z,98
2023-05-22T02:55:34.660Z,98
2023-05-22T02:56:05.728Z,98
2023-05-22T02:56:36.853Z,98
2023-05-22T02:57:07.809Z,98
2023-05-22T02:57:40.271Z,98
2023-05-22T02:58:10.998Z,98
2023-05-22T02:58:40.757Z,98
2023-05-22T02:59:11.693Z,98
2023-05-22T02:59:42.908Z,98
2023-05-22T03:00:16.167Z,98
2023-05-22T03:00:44.470Z,98
2023-05-22T03:01:16.120Z,98
2023-05-22T03:01:46.617Z,98
2023-05-22T03:02:17.814Z,98
2023-05-22T03:02:49.556Z,98
2023-05-22T03:03:19.680Z,98
2023-05-22T03:03:50.928Z,98
2023-05-22T03:04:22.427Z,98
2023-05-22T03:04:53.034Z,98
2023-05-22T03:05:24.035Z,99
2023-05-22T03:05:54.844Z,99
2023-05-22T03:06:25.774Z,99
2023-05-22T03:06:56.549Z,99
2023-05-22T03:07:27.658Z,99
2023-05-22T03:07:59.515Z,99
2023-05-22T03:08:30.130Z,99
2023-05-22T03:09:01.708Z,99
2023-05-22T03:09:32.246Z,99
2023-05-22T03:10:02.445Z,99
2023-05-22T03:10:33.761Z,99
2023-05-22T03:11:04.841Z,99
2023-05-22T03:11:35.788Z,99
2023-05-22T03:12:06.441Z,99
2023-05-22T03:12:37.663Z,99
2023-05-22T03:13:09.591Z,99
2023-05-22T03:13:39.470Z,99
2023-05-22T03:14:10.584Z,99
2023-05-22T03:14:42.081Z,99
2023-05-22T03:15:15.903Z,99
2023-05-22T03:15:44.097Z,99
2023-05-22T03:16:14.616Z,99
2023-05-22T03:16:45.956Z,99
2023-05-22T03:17:16.669Z,99
2023-05-22T03:17:48.119Z,99
2023-05-22T03:18:19.664Z,99
2023-05-22T03:18:49.698Z,99
2023-05-22T03:19:20.528Z,99
2023-05-22T03:19:52.137Z,99
2023-05-22T03:20:22.929Z,99
2023-05-22T03:20:53.826Z,99
2023-05-22T03:21:24.914Z,99
2023-05-22T03:21:55.928Z,99
2023-05-22T03:22:26.909Z,99
2023-05-22T03:22:58.014Z,99
2023-05-22T03:23:29.648Z,99
2023-05-22T03:23:59.734Z,99
2023-05-22T03:24:31.177Z,99
2023-05-22T03:25:02.022Z,99
2023-05-22T03:25:32.740Z,99
2023-05-22T03:26:03.699Z,99
2023-05-22T03:26:34.973Z,99
2023-05-22T03:27:05.797Z,99
2023-05-22T03:27:37.308Z,99
2023-05-22T03:28:07.956Z,99
2023-05-22T03:28:39.931Z,99
2023-05-22T03:29:10.708Z,99
2023-05-22T03:29:41.091Z,99
2023-05-22T03:30:14.795Z,99
2023-05-22T03:30:42.974Z,99
2023-05-22T03:31:13.536Z,99
2023-05-22T03:31:44.952Z,99
2023-05-22T03:32:15.600Z,99
2023-05-22T03:32:46.670Z,99
2023-05-22T03:33:18.091Z,99
2023-05-22T03:33:50.049Z,99
2023-05-22T03:34:20.093Z,99
2023-05-22T03:34:50.746Z,99
2023-05-22T03:35:21.460Z,99
2023-05-22T03:35:52.853Z,99
2023-05-22T03:36:23.992Z,99
2023-05-22T03:36:54.933Z,99
2023-05-22T03:37:25.482Z,99
2023-05-22T03:37:56.693Z,99
2023-05-22T03:38:28.061Z,99
2023-05-22T03:38:59.700Z,99
2023-05-22T03:39:29.649Z,99
2023-05-22T03:40:01.120Z,99
2023-05-22T03:40:32.199Z,99
2023-05-22T03:41:02.969Z,99
2023-05-22T03:41:34.146Z,99
2023-05-22T03:42:04.899Z,99
2023-05-22T03:42:35.736Z,99
2023-05-22T03:43:06.839Z,99
2023-05-22T03:43:38.042Z,99
2023-05-22T03:44:09.803Z,99
2023-05-22T03:44:39.664Z,99
2023-05-22T03:45:13.476Z,99
2023-05-22T03:45:41.878Z,99
2023-05-22T03:46:12.858Z,99
2023-05-22T03:46:43.899Z,99
2023-05-22T03:47:14.953Z,99
2023-05-22T03:47:46.091Z,99
2023-05-22T03:48:16.878Z,99
2023-05-22T03:48:47.779Z,99
2023-05-22T03:49:20.056Z,99
2023-05-22T03:49:49.818Z,99
2023-05-22T03:50:20.996Z,99
2023-05-22T03:50:51.949Z,99
2023-05-22T03:51:22.892Z,99
2023-05-22T03:51:53.627Z,99
2023-05-22T03:52:24.858Z,99
2023-05-22T03:52:56.076Z,99
2023-05-22T03:53:26.917Z,99
2023-05-22T03:53:58.114Z,99
2023-05-22T03:54:29.734Z,99
2023-05-22T03:54:59.945Z,99
2023-05-22T03:55:31.006Z,99
2023-05-22T03:56:01.961Z,99
2023-05-22T03:56:32.894Z,99
2023-05-22T03:57:03.587Z,99
2023-05-22T03:57:34.939Z,99
2023-05-22T03:58:05.778Z,99
2023-05-22T03:58:36.884Z,99
2023-05-22T03:59:07.906Z,99
2023-05-22T03:59:39.904Z,99
2023-05-22T04:00:13.551Z,99
2023-05-22T04:00:40.893Z,99
2023-05-22T04:01:11.727Z,99
2023-05-22T04:01:42.881Z,99
2023-05-22T04:02:14.107Z,99
2023-05-22T04:02:45.170Z,99
2023-05-22T04:03:15.893Z,99
2023-05-22T04:03:46.752Z,99
2023-05-22T04:04:17.799Z,99
2023-05-22T04:04:49.741Z,99
2023-05-22T04:05:20.071Z,99
2023-05-22T04:05:50.935Z,99
2023-05-22T04:06:21.630Z,99
2023-05-22T04:06:52.721Z,99
2023-05-22T04:07:24.014Z,99
2023-05-22T04:07:54.863Z,99
2023-05-22T04:08:25.738Z,99
2023-05-22T04:08:56.772Z,99
2023-05-22T04:09:27.892Z,99
2023-05-22T04:09:59.874Z,99
2023-05-22T04:10:30.462Z,99
2023-05-22T04:11:01.018Z,99
2023-05-22T04:11:32.176Z,99
2023-05-22T04:12:02.953Z,99
2023-05-22T04:12:34.037Z,99
2023-05-22T04:13:05.179Z,99
2023-05-22T04:13:37.147Z,99
2023-05-22T04:14:06.828Z,99
2023-05-22T04:14:38.051Z,99
2023-05-22T04:15:12.790Z,99
2023-05-22T04:15:39.978Z,99
2023-05-22T04:16:10.986Z,99
2023-05-22T04:16:41.926Z,99
2023-05-22T04:17:12.749Z,99
2023-05-22T04:17:44.352Z,99
2023-05-22T04:18:14.964Z,99
2023-05-22T04:18:46.155Z,99
2023-05-22T04:19:17.756Z,99
2023-05-22T04:19:48.148Z,99
2023-05-22T04:20:20.389Z,99
2023-05-22T04:20:50.921Z,99
2023-05-22T04:21:21.043Z,99
2023-05-22T04:21:52.178Z,99
2023-05-22T04:22:22.838Z,99
2023-05-22T04:22:53.942Z,99
2023-05-22T04:23:25.139Z,99
2023-05-22T04:23:55.997Z,99
2023-05-22T04:24:26.915Z,99
2023-05-22T04:24:57.593Z,99
2023-05-22T04:25:31.888Z,99
2023-05-22T04:26:00.171Z,99
2023-05-22T04:26:31.344Z,99
2023-05-22T04:27:01.678Z,99
2023-05-22T04:27:33.725Z,99
2023-05-22T04:28:04.084Z,99
2023-05-22T04:28:35.213Z,99
2023-05-22T04:29:05.841Z,99
2023-05-22T04:29:36.799Z,99
2023-05-22T04:30:10.800Z,99
2023-05-22T04:30:40.252Z,99
2023-05-22T04:31:10.668Z,99
2023-05-22T04:31:40.926Z,99
2023-05-22T04:32:12.392Z,99
2023-05-22T04:32:43.445Z,99
2023-05-22T04:33:13.928Z,99
2023-05-22T04:33:44.720Z,99
2023-05-22T04:34:15.794Z,99
2023-05-22T04:34:47.049Z,99
2023-05-22T04:35:17.972Z,99
2023-05-22T04:35:50.134Z,99
2023-05-22T04:36:20.609Z,99
2023-05-22T04:36:51.153Z,99
2023-05-22T04:37:22.006Z,99
2023-05-22T04:37:53.494Z,99
2023-05-22T04:38:23.893Z,99
2023-05-22T04:38:54.841Z,99
2023-05-22T04:39:25.947Z,99
2023-05-22T04:39:57.405Z,99
2023-05-22T04:40:27.975Z,99
2023-05-22T04:40:59.851Z,99
2023-05-22T04:41:29.876Z,99
2023-05-22T04:42:00.877Z,99
2023-05-22T04:42:32.214Z,99
2023-05-22T04:43:03.011Z,99
2023-05-22T04:43:33.807Z,99
2023-05-22T04:44:05.812Z,99
2023-05-22T04:44:36.013Z,99
2023-05-22T04:45:09.986Z,99
2023-05-22T04:45:38.226Z,99
2023-05-22T04:46:10.251Z,99
2023-05-22T04:46:39.902Z,99
2023-05-22T04:47:12.784Z,99
2023-05-22T04:47:42.070Z,99
2023-05-22T04:48:13.341Z,99
2023-05-22T04:48:44.016Z,99
2023-05-22T04:49:14.757Z,99
2023-05-22T04:49:46.743Z,99
2023-05-22T04:50:18.175Z,99
2023-05-22T04:50:48.392Z,99
2023-05-22T04:51:20.085Z,99
2023-05-22T04:51:50.152Z,99
2023-05-22T04:52:20.756Z,99
2023-05-22T04:52:51.798Z,99
2023-05-22T04:53:23.317Z,99
2023-05-22T04:53:54.250Z,99
2023-05-22T04:54:24.891Z,99
2023-05-22T04:54:55.821Z,99
2023-05-22T04:55:26.671Z,99
2023-05-22T04:55:58.093Z,99
2023-05-22T04:56:36.230Z,99
2023-05-22T04:56:59.930Z,99
2023-05-22T04:57:30.831Z,99
2023-05-22T04:58:02.062Z,99
2023-05-22T04:58:33.239Z,98
2023-05-22T04:59:03.887Z,98
2023-05-22T04:59:35.135Z,98
2023-05-22T05:00:08.668Z,97
2023-05-22T05:00:36.989Z,97
2023-05-22T05:01:07.846Z,97
2023-05-22T05:01:39.897Z,96
2023-05-22T05:02:10.957Z,96
2023-05-22T05:02:40.647Z,96
2023-05-22T05:03:12.101Z,95
2023-05-22T05:03:42.842Z,95
2023-05-22T05:04:13.872Z,95
2023-05-22T05:04:45.035Z,95
2023-05-22T05:05:15.990Z,95
2023-05-22T05:05:46.802Z,94
2023-05-22T05:06:17.903Z,94
2023-05-22T05:06:50.310Z,94
2023-05-22T05:07:20.406Z,94
2023-05-22T05:07:50.632Z,94
2023-05-22T05:08:21.688Z,94
2023-05-22T05:08:53.188Z,93
2023-05-22T05:09:24.219Z,92
2023-05-22T05:09:55.122Z,92
2023-05-22T05:10:26.486Z,92
2023-05-22T05:10:57.286Z,92
2023-05-22T05:11:27.994Z,92
2023-05-22T05:11:59.964Z,92
2023-05-22T05:12:29.821Z,91
2023-05-22T05:13:01.054Z,91
2023-05-22T05:13:32.020Z,91
2023-05-22T05:14:03.242Z,92
2023-05-22T05:14:33.675Z,92
2023-05-22T05:15:07.815Z,92
2023-05-22T05:15:35.856Z,92
2023-05-22T05:16:06.825Z,91
2023-05-22T05:16:37.865Z,90
2023-05-22T05:17:09.929Z,90
2023-05-22T05:17:40.085Z,89
2023-05-22T05:18:11.077Z,88
2023-05-22T05:18:41.825Z,88
2023-05-22T05:19:13.077Z,88
2023-05-22T05:19:44.274Z,87
2023-05-22T05:20:14.937Z,87
2023-05-22T05:20:46.528Z,87
2023-05-22T05:21:17.304Z,87
2023-05-22T05:21:48.174Z,87
2023-05-22T05:22:20.034Z,88
2023-05-22T05:22:49.724Z,88
2023-05-22T05:23:20.754Z,89
2023-05-22T05:23:52.046Z,89
2023-05-22T05:24:23.016Z,90
2023-05-22T05:24:53.944Z,90
2023-05-22T05:25:24.960Z,90
2023-05-22T05:25:55.937Z,91
2023-05-22T05:26:27.018Z,90
2023-05-22T05:26:58.029Z,90
2023-05-22T05:27:29.859Z,89
2023-05-22T05:27:59.902Z,89
2023-05-22T05:28:30.805Z,89
2023-05-22T05:29:01.920Z,89
2023-05-22T05:29:33.065Z,89
2023-05-22T05:30:06.989Z,89
2023-05-22T05:30:35.016Z,89
2023-05-22T05:31:05.952Z,89
2023-05-22T05:31:36.868Z,89
2023-05-22T05:32:07.935Z,89
2023-05-22T05:32:40.370Z,89
2023-05-22T05:33:11.282Z,89
2023-05-22T05:33:41.458Z,89
2023-05-22T05:34:11.858Z,89
2023-05-22T05:34:42.665Z,89
2023-05-22T05:35:13.851Z,89
2023-05-22T05:35:44.900Z,89
2023-05-22T05:36:15.628Z,89
2023-05-22T05:36:46.600Z,89
2023-05-22T05:37:18.607Z,89
2023-05-22T05:37:50.066Z,89
2023-05-22T05:38:20.151Z,89
2023-05-22T05:38:51.078Z,89
2023-05-22T05:39:21.996Z,88
2023-05-22T05:39:53.102Z,88
2023-05-22T05:40:24.154Z,88
2023-05-22T05:40:55.370Z,87
2023-05-22T05:41:26.050Z,87
2023-05-22T05:41:57.165Z,87
2023-05-22T05:42:28.375Z,86
2023-05-22T05:43:00.192Z,86
2023-05-22T05:43:30.202Z,85
2023-05-22T05:44:01.523Z,85
2023-05-22T05:44:32.265Z,85
2023-05-22T05:45:06.028Z,84
2023-05-22T05:45:34.404Z,84
2023-05-22T05:46:05.033Z,84
2023-05-22T05:46:36.397Z,83
2023-05-22T05:47:07.063Z,83
2023-05-22T05:47:38.247Z,82
2023-05-22T05:48:10.332Z,82
2023-05-22T05:48:40.264Z,82
2023-05-22T05:49:11.096Z,82
2023-05-22T05:49:42.060Z,82
2023-05-22T05:50:13.139Z,81
2023-05-22T05:50:44.420Z,81
2023-05-22T05:51:15.241Z,81
2023-05-22T05:51:45.941Z,81
2023-05-22T05:52:17.184Z,82
2023-05-22T05:52:48.215Z,82
2023-05-22T05:53:20.024Z,82
2023-05-22T05:53:50.061Z,81
2023-05-22T05:54:21.792Z,81
2023-05-22T05:54:52.307Z,81
2023-05-22T05:55:23.602Z,81
2023-05-22T05:55:54.324Z,81
2023-05-22T05:56:25.325Z,81
2023-05-22T05:56:56.330Z,81
2023-05-22T05:57:27.487Z,81
2023-05-22T05:57:58.054Z,81
2023-05-22T05:58:30.163Z,81
2023-05-22T05:59:00.408Z,82
2023-05-22T05:59:31.307Z,83
2023-05-22T06:00:05.717Z,83
2023-05-22T06:00:33.458Z,83
2023-05-22T06:01:04.394Z,84
2023-05-22T06:01:35.076Z,83
2023-05-22T06:02:06.188Z,83
2023-05-22T06:02:37.751Z,83
2023-05-22T06:03:08.211Z,83
2023-05-22T06:03:40.612Z,83
2023-05-22T06:04:11.319Z,82
2023-05-22T06:04:41.573Z,82
2023-05-22T06:05:12.241Z,82
2023-05-22T06:05:43.531Z,81
2023-05-22T06:06:14.212Z,81
2023-05-22T06:06:45.292Z,82
2023-05-22T06:07:16.319Z,82
2023-05-22T06:07:46.967Z,82
2023-05-22T06:08:18.271Z,82
2023-05-22T06:08:50.374Z,82
2023-05-22T06:09:20.101Z,83
2023-05-22T06:09:51.436Z,83
2023-05-22T06:10:22.273Z,83
2023-05-22T06:10:53.424Z,82
2023-05-22T06:11:24.807Z,82
2023-05-22T06:11:56.117Z,82
2023-05-22T06:12:26.509Z,81
2023-05-22T06:12:57.330Z,82
2023-05-22T06:13:28.310Z,82
2023-05-22T06:14:00.168Z,82
2023-05-22T06:14:30.100Z,82
2023-05-22T06:15:04.306Z,82
2023-05-22T06:15:32.218Z,81
2023-05-22T06:16:06.523Z,82
2023-05-22T06:16:34.237Z,83
2023-05-22T06:17:05.007Z,82
2023-05-22T06:17:36.329Z,82
2023-05-22T06:18:07.334Z,82
2023-05-22T06:18:38.274Z,82
2023-05-22T06:19:10.167Z,83
2023-05-22T06:19:40.157Z,82
2023-05-22T06:20:11.255Z,82
2023-05-22T06:20:42.482Z,82
2023-05-22T06:21:13.191Z,83
2023-05-22T06:21:43.960Z,83
2023-05-22T06:22:15.044Z,83
2023-05-22T06:22:46.068Z,83
2023-05-22T06:23:17.468Z,82
2023-05-22T06:23:48.423Z,82
2023-05-22T06:24:20.579Z,82
2023-05-22T06:24:50.549Z,82
2023-05-22T06:25:22.386Z,82
2023-05-22T06:25:52.269Z,82
2023-05-22T06:26:23.109Z,81
2023-05-22T06:26:54.498Z,81
2023-05-22T06:27:25.074Z,82
2023-05-22T06:27:56.150Z,81
2023-05-22T06:28:27.527Z,81
2023-05-22T06:28:58.227Z,81
2023-05-22T06:29:30.579Z,80
2023-05-22T06:30:00.096Z,80
2023-05-22T06:30:40.187Z,80
2023-05-22T06:31:02.474Z,80
2023-05-22T06:31:33.482Z,79
2023-05-22T06:32:04.903Z,80
2023-05-22T06:32:35.826Z,80
2023-05-22T06:33:06.384Z,80
2023-05-22T06:33:37.336Z,80
2023-05-22T06:34:08.264Z,79
2023-05-22T06:34:40.241Z,79
2023-05-22T06:35:11.260Z,79
2023-05-22T06:35:41.043Z,79
2023-05-22T06:36:12.258Z,79
2023-05-22T06:36:43.170Z,80
2023-05-22T06:37:14.410Z,79
2023-05-22T06:37:45.211Z,79
2023-05-22T06:38:16.157Z,79
2023-05-22T06:38:47.171Z,79
2023-05-22T06:39:18.142Z,79
2023-05-22T06:39:50.751Z,79
2023-05-22T06:40:20.412Z,79
2023-05-22T06:40:51.214Z,78
2023-05-22T06:41:22.121Z,78
2023-05-22T06:41:53.597Z,77
2023-05-22T06:42:24.182Z,77
2023-05-22T06:42:55.505Z,77
2023-05-22T06:43:25.888Z,77
2023-05-22T06:43:57.267Z,77
2023-05-22T06:44:28.371Z,77
2023-05-22T06:45:00.184Z,77
2023-05-22T06:45:33.271Z,77
2023-05-22T06:46:01.443Z,76
2023-05-22T06:46:32.256Z,76
2023-05-22T06:47:03.239Z,77
2023-05-22T06:47:34.385Z,76
2023-05-22T06:48:05.215Z,76
2023-05-22T06:48:36.379Z,75
2023-05-22T06:49:07.408Z,75
2023-05-22T06:49:38.222Z,75
2023-05-22T06:50:10.812Z,74
2023-05-22T06:50:40.420Z,74
2023-05-22T06:51:11.830Z,74
2023-05-22T06:51:43.327Z,74
2023-05-22T06:52:14.088Z,75
2023-05-22T06:52:44.748Z,75
2023-05-22T06:53:15.365Z,75
2023-05-22T06:53:46.494Z,75
2023-05-22T06:54:17.283Z,75
2023-05-22T06:54:48.063Z,74
2023-05-22T06:55:20.478Z,75
2023-05-22T06:55:50.121Z,74
2023-05-22T06:56:21.219Z,75
2023-05-22T06:56:52.603Z,75
2023-05-22T06:57:23.514Z,75
2023-05-22T06:57:54.554Z,75
2023-05-22T06:58:25.708Z,76
2023-05-22T06:58:56.406Z,75
2023-05-22T06:59:27.108Z,75
2023-05-22T06:59:58.394Z,75
2023-05-22T07:00:34.116Z,75
2023-05-22T07:01:00.495Z,75
2023-05-22T07:01:31.515Z,75
2023-05-22T07:02:02.790Z,75
2023-05-22T07:02:33.359Z,75
2023-05-22T07:03:04.192Z,74
2023-05-22T07:03:35.282Z,74
2023-05-22T07:04:06.284Z,74
2023-05-22T07:04:37.414Z,73
2023-05-22T07:05:08.153Z,74
2023-05-22T07:05:40.070Z,75
2023-05-22T07:06:11.162Z,74
2023-05-22T07:06:41.252Z,74
2023-05-22T07:07:12.265Z,74
2023-05-22T07:07:43.662Z,74
2023-05-22T07:08:14.245Z,74
2023-05-22T07:08:45.132Z,74
2023-05-22T07:09:16.302Z,73
2023-05-22T07:09:47.504Z,73
2023-05-22T07:10:18.279Z,74
2023-05-22T07:10:50.309Z,73
2023-05-22T07:11:20.223Z,73
2023-05-22T07:11:51.354Z,72
2023-05-22T07:12:22.221Z,73
2023-05-22T07:12:53.392Z,72
2023-05-22T07:13:24.335Z,73
2023-05-22T07:13:55.554Z,73
2023-05-22T07:14:26.325Z,73
2023-05-22T07:14:57.647Z,74
2023-05-22T07:15:30.953Z,72
2023-05-22T07:16:00.244Z,72
2023-05-22T07:16:30.395Z,71
2023-05-22T07:17:01.263Z,72
2023-05-22T07:17:32.299Z,70
2023-05-22T07:18:04.190Z,70
2023-05-22T07:18:35.786Z,70
2023-05-22T07:19:05.391Z,71
2023-05-22T07:19:36.334Z,72
2023-05-22T07:20:07.088Z,69
2023-05-22T07:20:38.560Z,69
2023-05-22T07:21:10.624Z,70
2023-05-22T07:21:40.593Z,70
2023-05-22T07:22:12.696Z,70
2023-05-22T07:22:42.249Z,69
2023-05-22T07:23:13.378Z,69
2023-05-22T07:23:44.439Z,68
2023-05-22T07:24:15.128Z,68
2023-05-22T07:24:46.276Z,69
2023-05-22T07:25:18.175Z,69
2023-05-22T07:25:48.052Z,69
2023-05-22T07:26:20.255Z,69